createdAt,value
2017-04-01T00:00:03.229Z,0
2017-04-01T00:05:03.274Z,0
2017-04-01T00:10:03.024Z,0
2017-04-01T00:15:02.713Z,0
2017-04-01T00:20:03.367Z,0
2017-04-01T00:25:03.022Z,0
2017-04-01T00:30:02.715Z,0
2017-04-01T00:35:03.344Z,0
2017-04-01T00:40:03.176Z,0
2017-04-01T00:45:02.777Z,0
2017-04-01T00:50:02.693Z,0
2017-04-01T00:55:03.497Z,0
2017-04-01T01:00:03.412Z,0
2017-04-01T01:05:03.001Z,0
2017-04-01T01:10:02.672Z,0
2017-04-01T01:15:03.455Z,0
2017-04-01T01:20:03.144Z,0
2017-04-01T01:25:02.818Z,0
2017-04-01T01:30:03.616Z,0
2017-04-01T01:35:03.419Z,0
2017-04-01T01:40:03.125Z,0
2017-04-01T01:45:02.931Z,0
2017-04-01T01:55:03.537Z,0
2017-04-01T02:00:03.503Z,0
2017-04-01T02:05:03.292Z,0
2017-04-01T02:10:02.927Z,0
2017-04-01T02:15:02.691Z,0
2017-04-01T02:20:03.302Z,0
2017-04-01T02:25:03.002Z,0
2017-04-01T02:30:02.863Z,0
2017-04-01T02:35:02.646Z,0
2017-04-01T02:40:03.381Z,0
2017-04-01T02:45:03.018Z,0
2017-04-01T02:50:02.656Z,0
2017-04-01T02:55:03.364Z,0
2017-04-01T03:00:03.246Z,0
2017-04-01T03:05:02.972Z,0
2017-04-01T03:10:02.848Z,0
2017-04-01T03:15:03.559Z,0
2017-04-01T03:20:03.167Z,0
2017-04-01T03:25:02.843Z,0
2017-04-01T03:30:03.533Z,0
2017-04-01T03:35:03.342Z,0
2017-04-01T03:40:02.987Z,0
2017-04-01T03:45:02.700Z,0
2017-04-01T03:50:03.436Z,0
2017-04-01T03:55:03.175Z,0
2017-04-01T04:00:03.187Z,0
2017-04-01T04:05:02.800Z,0
2017-04-01T04:10:02.616Z,0
2017-04-01T04:15:03.557Z,0
2017-04-01T04:20:03.297Z,0
2017-04-01T04:25:02.941Z,0
2017-04-01T04:30:02.910Z,0
2017-04-01T04:35:02.594Z,0
2017-04-01T04:40:03.332Z,0
2017-04-01T04:45:02.973Z,0
2017-04-01T04:50:02.648Z,0
2017-04-01T04:55:03.632Z,0
2017-04-01T05:00:03.331Z,0
2017-04-01T05:05:02.970Z,0
2017-04-01T05:10:02.653Z,0
2017-04-01T05:15:03.292Z,0
2017-04-01T05:20:02.998Z,0
2017-04-01T05:25:02.760Z,0
2017-04-01T05:30:03.450Z,0
2017-04-01T05:35:03.072Z,0
2017-04-01T05:40:02.757Z,0
2017-04-01T05:45:03.389Z,0
2017-04-01T05:50:03.128Z,0
2017-04-01T05:55:02.819Z,0
2017-04-01T06:00:03.370Z,0
2017-04-01T06:05:03.262Z,0
2017-04-01T06:10:02.926Z,0
2017-04-01T06:15:02.675Z,0
2017-04-01T06:20:03.485Z,0
2017-04-01T06:25:03.212Z,0
2017-04-01T06:30:03.048Z,0
2017-04-01T06:35:02.783Z,0
2017-04-01T06:40:03.565Z,0
2017-04-01T06:45:03.283Z,0
2017-04-01T06:50:03.003Z,0
2017-04-01T06:55:02.730Z,0
2017-04-01T07:00:03.501Z,0
2017-04-01T07:05:03.260Z,0
2017-04-01T07:10:03.086Z,0
2017-04-01T07:15:03.218Z,0
2017-04-01T07:20:03.033Z,0
2017-04-01T07:25:02.773Z,0
2017-04-01T07:30:03.404Z,0
2017-04-01T07:35:03.062Z,0
2017-04-01T07:40:02.836Z,0
2017-04-01T07:45:02.621Z,0
2017-04-01T07:50:03.308Z,0
2017-04-01T07:55:03.061Z,0
2017-04-01T08:00:02.748Z,0
2017-04-01T08:05:03.599Z,0
2017-04-01T08:10:03.310Z,0
2017-04-01T08:15:02.984Z,0
2017-04-01T08:20:02.693Z,0
2017-04-01T08:25:03.640Z,0
2017-04-01T08:30:03.263Z,0
2017-04-01T08:35:02.889Z,0
2017-04-01T08:40:02.653Z,0
2017-04-01T08:45:03.314Z,0
2017-04-01T08:50:03.030Z,2
2017-04-01T08:55:02.718Z,3
2017-04-01T09:00:03.561Z,3
2017-04-01T09:05:03.280Z,2
2017-04-01T09:10:03.007Z,3
2017-04-01T09:15:02.980Z,5
2017-04-01T09:20:02.812Z,3
2017-04-01T09:25:03.518Z,4
2017-04-01T09:30:03.234Z,3
2017-04-01T09:35:03.112Z,3
2017-04-01T09:40:03.147Z,3
2017-04-01T09:45:03.036Z,6
2017-04-01T09:50:02.878Z,7
2017-04-01T09:55:03.196Z,6
2017-04-01T10:00:03.522Z,7
2017-04-01T10:05:03.406Z,7
2017-04-01T10:10:03.222Z,4
2017-04-01T10:15:03.023Z,7
2017-04-01T10:20:02.907Z,5
2017-04-01T10:25:02.835Z,5
2017-04-01T10:30:02.836Z,5
2017-04-01T10:35:02.909Z,5
2017-04-01T10:40:03.314Z,6
2017-04-01T10:45:03.664Z,3
2017-04-01T10:50:03.589Z,3
2017-04-01T10:55:03.487Z,4
2017-04-01T11:00:03.494Z,6
2017-04-01T11:05:03.359Z,4
2017-04-01T11:10:03.046Z,3
2017-04-01T11:15:03.029Z,5
2017-04-01T11:20:03.370Z,4
2017-04-01T11:25:03.504Z,3
2017-04-01T11:30:02.702Z,4
2017-04-01T11:35:02.898Z,5
2017-04-01T11:40:03.297Z,4
2017-04-01T11:45:02.955Z,3
2017-04-01T11:50:03.019Z,3
2017-04-01T11:55:03.292Z,3
2017-04-01T12:00:03.641Z,1
2017-04-01T12:05:03.625Z,3
2017-04-01T12:10:03.567Z,2
2017-04-01T12:15:03.321Z,3
2017-04-01T12:20:03.511Z,6
2017-04-01T12:25:03.444Z,3
2017-04-01T12:30:03.197Z,6
2017-04-01T12:35:02.853Z,4
2017-04-01T12:40:02.807Z,5
2017-04-01T12:45:03.750Z,3
2017-04-01T12:50:03.515Z,2
2017-04-01T12:55:03.465Z,3
2017-04-01T13:00:03.618Z,3
2017-04-01T13:05:03.176Z,2
2017-04-01T13:10:03.207Z,4
2017-04-01T13:15:03.338Z,5
2017-04-01T13:20:02.815Z,2
2017-04-01T13:25:03.279Z,3
2017-04-01T13:30:02.811Z,4
2017-04-01T13:35:03.198Z,3
2017-04-01T13:40:03.094Z,4
2017-04-01T13:45:02.805Z,5
2017-04-01T13:50:02.896Z,3
2017-04-01T13:55:03.064Z,3
2017-04-01T14:00:02.789Z,2
2017-04-01T14:05:03.249Z,4
2017-04-01T14:10:02.767Z,3
2017-04-01T14:15:03.062Z,4
2017-04-01T14:20:03.302Z,3
2017-04-01T14:25:02.977Z,4
2017-04-01T14:30:03.020Z,4
2017-04-01T14:35:02.625Z,3
2017-04-01T14:40:03.074Z,4
2017-04-01T14:45:03.514Z,5
2017-04-01T14:50:03.739Z,3
2017-04-01T14:55:03.334Z,2
2017-04-01T15:00:03.524Z,3
2017-04-01T15:05:03.679Z,2
2017-04-01T15:10:03.243Z,2
2017-04-01T15:15:03.398Z,2
2017-04-01T15:20:03.374Z,4
2017-04-01T15:25:03.613Z,2
2017-04-01T15:30:02.647Z,3
2017-04-01T15:35:03.650Z,4
2017-04-01T15:40:03.759Z,2
2017-04-01T15:45:03.773Z,0
2017-04-01T15:50:02.644Z,3
2017-04-01T15:55:03.634Z,4
2017-04-01T16:00:03.597Z,3
2017-04-01T16:05:03.614Z,3
2017-04-01T16:10:03.583Z,3
2017-04-01T16:15:03.383Z,2
2017-04-01T16:20:03.262Z,4
2017-04-01T16:25:02.922Z,3
2017-04-01T16:30:03.715Z,2
2017-04-01T16:35:03.674Z,2
2017-04-01T16:40:03.545Z,3
2017-04-01T16:45:03.382Z,1
2017-04-01T16:50:03.037Z,0
2017-04-01T16:55:02.727Z,0
2017-04-01T17:00:03.451Z,0
2017-04-01T17:05:03.473Z,0
2017-04-01T17:10:03.398Z,0
2017-04-01T17:15:03.269Z,0
2017-04-01T17:20:03.022Z,0
2017-04-01T17:25:02.768Z,0
2017-04-01T17:30:03.608Z,0
2017-04-01T17:35:03.427Z,0
2017-04-01T17:40:03.351Z,0
2017-04-01T17:45:03.001Z,0
2017-04-01T17:50:02.846Z,2
2017-04-01T17:55:03.721Z,4
2017-04-01T18:00:03.478Z,3
2017-04-01T18:05:03.459Z,3
2017-04-01T18:10:03.339Z,2
2017-04-01T18:15:03.102Z,3
2017-04-01T18:20:02.768Z,1
2017-04-01T18:25:03.585Z,0
2017-04-01T18:30:03.328Z,0
2017-04-01T18:35:03.315Z,0
2017-04-01T18:40:03.219Z,0
2017-04-01T18:45:02.927Z,0
2017-04-01T18:50:02.768Z,0
2017-04-01T18:55:03.678Z,0
2017-04-01T19:00:03.552Z,0
2017-04-01T19:05:03.550Z,0
2017-04-01T19:10:03.375Z,0
2017-04-01T19:15:03.109Z,0
2017-04-01T19:20:02.757Z,0
2017-04-01T19:25:03.623Z,0
2017-04-01T19:30:03.612Z,0
2017-04-01T19:35:03.530Z,0
2017-04-01T19:40:03.397Z,0
2017-04-01T19:45:03.250Z,0
2017-04-01T19:50:03.021Z,0
2017-04-01T19:55:02.970Z,0
2017-04-01T20:00:02.901Z,0
2017-04-01T20:05:03.948Z,0
2017-04-01T20:10:02.752Z,0
2017-04-01T20:15:03.419Z,0
2017-04-01T20:20:03.202Z,0
2017-04-01T20:25:02.929Z,0
2017-04-01T20:30:02.738Z,0
2017-04-01T20:35:03.571Z,0
2017-04-01T20:40:03.684Z,0
2017-04-01T20:45:03.371Z,0
2017-04-01T20:50:03.025Z,0
2017-04-01T20:55:02.744Z,0
2017-04-01T21:00:03.802Z,0
2017-04-01T21:05:03.425Z,0
2017-04-01T21:10:03.123Z,0
2017-04-01T21:15:02.850Z,0
2017-04-01T21:20:03.657Z,1
2017-04-01T21:25:03.595Z,1
2017-04-01T21:30:03.398Z,0
2017-04-01T21:35:03.178Z,0
2017-04-01T21:40:03.004Z,0
2017-04-01T21:45:02.902Z,2
2017-04-01T21:50:03.555Z,0
2017-04-01T21:55:03.402Z,2
2017-04-01T22:00:03.214Z,0
2017-04-01T22:05:03.339Z,3
2017-04-01T22:10:03.373Z,1
2017-04-01T22:15:03.249Z,0
2017-04-01T22:20:02.896Z,2
2017-04-01T22:25:02.642Z,2
2017-04-01T22:30:03.420Z,0
2017-04-01T22:35:03.315Z,0
2017-04-01T22:40:03.309Z,0
2017-04-01T22:45:03.051Z,0
2017-04-01T22:50:02.823Z,0
2017-04-01T22:55:03.553Z,0
2017-04-01T23:00:03.640Z,0
2017-04-01T23:05:03.260Z,0
2017-04-01T23:10:02.997Z,0
2017-04-01T23:15:02.868Z,0
2017-04-01T23:20:02.709Z,0
2017-04-01T23:25:03.449Z,0
2017-04-01T23:30:03.196Z,0
2017-04-01T23:35:02.792Z,0
2017-04-01T23:40:02.655Z,0
2017-04-01T23:45:03.282Z,0
2017-04-01T23:50:02.966Z,0
2017-04-01T23:55:02.684Z,1
